sensor_id;sensor_type;location;lat;lon;timestamp;P1;durP1;ratioP1;P2;durP2;ratioP2
2201;SDS011;1107;48.654;9.250;2023-05-14T00:02:22;12.13;;;10.70;;
2201;SDS011;1107;48.654;9.250;2023-05-14T00:04:49;12.00;;;10.80;;
2201;SDS011;1107;48.654;9.250;2023-05-14T00:07:16;14.50;;;11.10;;
2201;SDS011;1107;48.654;9.250;2023-05-14T00:09:44;12.50;;;11.40;;
2201;SDS011;1107;48.654;9.250;2023-05-14T00:12:11;12.47;;;11.37;;
2201;SDS011;1107;48.654;9.250;2023-05-14T00:14:38;11.87;;;10.50;;
2201;SDS011;1107;48.654;9.250;2023-05-14T00:17:05;13.20;;;10.17;;
2201;SDS011;1107;48.654;9.250;2023-05-14T00:19:32;11.27;;;10.10;;
2201;SDS011;1107;48.654;9.250;2023-05-14T00:21:59;11.70;;;10.83;;
2201;SDS011;1107;48.654;9.250;2023-05-14T00:24:26;11.27;;;10.50;;
2201;SDS011;1107;48.654;9.250;2023-05-14T00:26:54;11.30;;;10.50;;
2201;SDS011;1107;48.654;9.250;2023-05-14T00:29:21;11.67;;;10.67;;
2201;SDS011;1107;48.654;9.250;2023-05-14T00:31:49;10.90;;;10.10;;
2201;SDS011;1107;48.654;9.250;2023-05-14T00:34:15;10.53;;;9.93;;
2201;SDS011;1107;48.654;9.250;2023-05-14T00:36:42;12.80;;;11.70;;
2201;SDS011;1107;48.654;9.250;2023-05-14T00:39:09;10.97;;;10.17;;
2201;SDS011;1107;48.654;9.250;2023-05-14T00:41:36;10.93;;;10.13;;
2201;SDS011;1107;48.654;9.250;2023-05-14T00:44:05;12.40;;;11.40;;
2201;SDS011;1107;48.654;9.250;2023-05-14T00:46:32;11.10;;;10.40;;
2201;SDS011;1107;48.654;9.250;2023-05-14T00:48:58;11.13;;;10.20;;
2201;SDS011;1107;48.654;9.250;2023-05-14T00:51:28;11.10;;;10.30;;
2201;SDS011;1107;48.654;9.250;2023-05-14T00:53:55;11.47;;;10.57;;
2201;SDS011;1107;48.654;9.250;2023-05-14T00:56:22;10.43;;;9.73;;
2201;SDS011;1107;48.654;9.250;2023-05-14T00:58:49;13.47;;;10.70;;
2201;SDS011;1107;48.654;9.250;2023-05-14T01:01:18;11.57;;;10.73;;
2201;SDS011;1107;48.654;9.250;2023-05-14T01:03:45;11.17;;;10.23;;
2201;SDS011;1107;48.654;9.250;2023-05-14T01:06:14;11.10;;;10.10;;
2201;SDS011;1107;48.654;9.250;2023-05-14T01:08:47;10.70;;;9.70;;
2201;SDS011;1107;48.654;9.250;2023-05-14T01:11:25;10.70;;;9.80;;
2201;SDS011;1107;48.654;9.250;2023-05-14T01:13:58;10.70;;;9.90;;
2201;SDS011;1107;48.654;9.250;2023-05-14T01:16:33;9.77;;;9.27;;
2201;SDS011;1107;48.654;9.250;2023-05-14T01:19:02;11.07;;;10.30;;
2201;SDS011;1107;48.654;9.250;2023-05-14T01:21:35;11.50;;;10.10;;
2201;SDS011;1107;48.654;9.250;2023-05-14T01:24:05;16.60;;;10.43;;
2201;SDS011;1107;48.654;9.250;2023-05-14T01:26:32;17.43;;;9.77;;
2201;SDS011;1107;48.654;9.250;2023-05-14T01:29:00;11.17;;;10.20;;
2201;SDS011;1107;48.654;9.250;2023-05-14T01:31:31;11.80;;;10.80;;
2201;SDS011;1107;48.654;9.250;2023-05-14T01:34:01;10.87;;;10.10;;
2201;SDS011;1107;48.654;9.250;2023-05-14T01:36:30;11.93;;;11.00;;
2201;SDS011;1107;48.654;9.250;2023-05-14T01:38:58;12.27;;;11.17;;
2201;SDS011;1107;48.654;9.250;2023-05-14T01:41:27;12.47;;;11.33;;
2201;SDS011;1107;48.654;9.250;2023-05-14T01:43:56;12.50;;;11.50;;
2201;SDS011;1107;48.654;9.250;2023-05-14T01:46:23;12.67;;;11.37;;
2201;SDS011;1107;48.654;9.250;2023-05-14T01:48:50;27.77;;;11.70;;
2201;SDS011;1107;48.654;9.250;2023-05-14T01:51:17;12.17;;;11.30;;
2201;SDS011;1107;48.654;9.250;2023-05-14T01:53:44;13.37;;;11.77;;
2201;SDS011;1107;48.654;9.250;2023-05-14T01:56:12;14.10;;;12.80;;
2201;SDS011;1107;48.654;9.250;2023-05-14T01:58:39;13.00;;;11.87;;
2201;SDS011;1107;48.654;9.250;2023-05-14T02:01:06;13.30;;;12.17;;
2201;SDS011;1107;48.654;9.250;2023-05-14T02:03:33;13.30;;;12.00;;
2201;SDS011;1107;48.654;9.250;2023-05-14T02:06:00;13.23;;;12.00;;
2201;SDS011;1107;48.654;9.250;2023-05-14T02:08:27;13.10;;;12.00;;
2201;SDS011;1107;48.654;9.250;2023-05-14T02:10:54;14.20;;;12.47;;
2201;SDS011;1107;48.654;9.250;2023-05-14T02:13:22;17.20;;;13.80;;
2201;SDS011;1107;48.654;9.250;2023-05-14T02:15:50;14.60;;;13.07;;
2201;SDS011;1107;48.654;9.250;2023-05-14T02:18:17;15.73;;;14.03;;
2201;SDS011;1107;48.654;9.250;2023-05-14T02:20:45;15.20;;;12.27;;
2201;SDS011;1107;48.654;9.250;2023-05-14T02:23:12;15.00;;;13.40;;
2201;SDS011;1107;48.654;9.250;2023-05-14T02:25:38;15.77;;;13.60;;
2201;SDS011;1107;48.654;9.250;2023-05-14T02:28:05;15.13;;;13.60;;
2201;SDS011;1107;48.654;9.250;2023-05-14T02:30:34;14.70;;;13.40;;
2201;SDS011;1107;48.654;9.250;2023-05-14T02:33:01;15.70;;;13.87;;
2201;SDS011;1107;48.654;9.250;2023-05-14T02:35:27;20.10;;;14.17;;
2201;SDS011;1107;48.654;9.250;2023-05-14T02:37:54;19.33;;;14.60;;
2201;SDS011;1107;48.654;9.250;2023-05-14T02:40:23;17.00;;;14.30;;
2201;SDS011;1107;48.654;9.250;2023-05-14T02:42:50;18.83;;;15.07;;
2201;SDS011;1107;48.654;9.250;2023-05-14T02:45:17;19.30;;;14.83;;
2201;SDS011;1107;48.654;9.250;2023-05-14T02:47:46;16.33;;;14.73;;
2201;SDS011;1107;48.654;9.250;2023-05-14T02:50:13;16.50;;;14.73;;
2201;SDS011;1107;48.654;9.250;2023-05-14T02:52:40;18.53;;;16.40;;
2201;SDS011;1107;48.654;9.250;2023-05-14T02:55:08;17.57;;;15.77;;
2201;SDS011;1107;48.654;9.250;2023-05-14T02:57:35;17.27;;;15.37;;
2201;SDS011;1107;48.654;9.250;2023-05-14T03:00:02;17.80;;;15.17;;
2201;SDS011;1107;48.654;9.250;2023-05-14T03:02:30;20.20;;;15.37;;
2201;SDS011;1107;48.654;9.250;2023-05-14T03:04:59;17.33;;;15.63;;
2201;SDS011;1107;48.654;9.250;2023-05-14T03:07:25;18.17;;;15.37;;
2201;SDS011;1107;48.654;9.250;2023-05-14T03:09:52;16.73;;;15.20;;
2201;SDS011;1107;48.654;9.250;2023-05-14T03:12:19;20.37;;;15.27;;
2201;SDS011;1107;48.654;9.250;2023-05-14T03:14:46;16.20;;;14.50;;
2201;SDS011;1107;48.654;9.250;2023-05-14T03:17:13;16.60;;;14.20;;
2201;SDS011;1107;48.654;9.250;2023-05-14T03:19:40;17.03;;;14.77;;
2201;SDS011;1107;48.654;9.250;2023-05-14T03:22:08;17.97;;;15.90;;
2201;SDS011;1107;48.654;9.250;2023-05-14T03:24:36;15.63;;;14.03;;
2201;SDS011;1107;48.654;9.250;2023-05-14T03:27:04;20.63;;;15.53;;
2201;SDS011;1107;48.654;9.250;2023-05-14T03:29:31;16.43;;;14.90;;
2201;SDS011;1107;48.654;9.250;2023-05-14T03:31:58;15.97;;;14.47;;
2201;SDS011;1107;48.654;9.250;2023-05-14T03:34:25;16.00;;;14.57;;
2201;SDS011;1107;48.654;9.250;2023-05-14T03:36:52;16.90;;;15.30;;
2201;SDS011;1107;48.654;9.250;2023-05-14T03:39:20;14.47;;;13.27;;
2201;SDS011;1107;48.654;9.250;2023-05-14T03:41:47;14.67;;;13.27;;
2201;SDS011;1107;48.654;9.250;2023-05-14T03:44:14;13.80;;;12.70;;
2201;SDS011;1107;48.654;9.250;2023-05-14T03:46:41;14.80;;;13.50;;
2201;SDS011;1107;48.654;9.250;2023-05-14T03:49:08;15.53;;;14.13;;
2201;SDS011;1107;48.654;9.250;2023-05-14T03:51:35;15.47;;;13.97;;
2201;SDS011;1107;48.654;9.250;2023-05-14T03:54:02;14.90;;;13.40;;
2201;SDS011;1107;48.654;9.250;2023-05-14T03:56:30;13.60;;;12.37;;
2201;SDS011;1107;48.654;9.250;2023-05-14T03:58:57;13.83;;;12.40;;
2201;SDS011;1107;48.654;9.250;2023-05-14T04:01:24;14.20;;;12.70;;
2201;SDS011;1107;48.654;9.250;2023-05-14T04:03:51;13.60;;;12.20;;
2201;SDS011;1107;48.654;9.250;2023-05-14T04:06:18;12.37;;;11.43;;
2201;SDS011;1107;48.654;9.250;2023-05-14T04:08:45;16.73;;;13.07;;
2201;SDS011;1107;48.654;9.250;2023-05-14T04:11:12;14.20;;;12.90;;
2201;SDS011;1107;48.654;9.250;2023-05-14T04:13:40;12.93;;;12.03;;
2201;SDS011;1107;48.654;9.250;2023-05-14T04:16:07;14.10;;;12.80;;
2201;SDS011;1107;48.654;9.250;2023-05-14T04:18:34;16.27;;;12.60;;
2201;SDS011;1107;48.654;9.250;2023-05-14T04:21:01;13.87;;;12.67;;
2201;SDS011;1107;48.654;9.250;2023-05-14T04:23:28;12.77;;;11.70;;
2201;SDS011;1107;48.654;9.250;2023-05-14T04:25:55;13.20;;;12.10;;
2201;SDS011;1107;48.654;9.250;2023-05-14T04:28:23;15.40;;;13.80;;
2201;SDS011;1107;48.654;9.250;2023-05-14T04:30:51;12.67;;;11.70;;
2201;SDS011;1107;48.654;9.250;2023-05-14T04:33:18;14.10;;;12.77;;
2201;SDS011;1107;48.654;9.250;2023-05-14T04:35:45;13.13;;;12.13;;
2201;SDS011;1107;48.654;9.250;2023-05-14T04:38:12;13.60;;;12.27;;
2201;SDS011;1107;48.654;9.250;2023-05-14T04:40:39;13.40;;;12.20;;
2201;SDS011;1107;48.654;9.250;2023-05-14T04:43:06;13.37;;;12.30;;
2201;SDS011;1107;48.654;9.250;2023-05-14T04:45:33;13.43;;;12.17;;
2201;SDS011;1107;48.654;9.250;2023-05-14T04:48:02;14.40;;;13.00;;
2201;SDS011;1107;48.654;9.250;2023-05-14T04:50:31;12.90;;;11.80;;
2201;SDS011;1107;48.654;9.250;2023-05-14T04:52:58;13.77;;;11.33;;
2201;SDS011;1107;48.654;9.250;2023-05-14T04:55:25;13.47;;;12.27;;
2201;SDS011;1107;48.654;9.250;2023-05-14T04:57:52;13.80;;;12.30;;
2201;SDS011;1107;48.654;9.250;2023-05-14T05:00:19;13.00;;;11.73;;
2201;SDS011;1107;48.654;9.250;2023-05-14T05:02:47;14.40;;;11.77;;
2201;SDS011;1107;48.654;9.250;2023-05-14T05:05:15;13.97;;;12.57;;
2201;SDS011;1107;48.654;9.250;2023-05-14T05:07:42;17.90;;;12.33;;
2201;SDS011;1107;48.654;9.250;2023-05-14T05:10:09;13.03;;;11.80;;
2201;SDS011;1107;48.654;9.250;2023-05-14T05:12:36;12.70;;;11.70;;
2201;SDS011;1107;48.654;9.250;2023-05-14T05:15:04;14.23;;;12.90;;
2201;SDS011;1107;48.654;9.250;2023-05-14T05:17:31;13.20;;;12.10;;
2201;SDS011;1107;48.654;9.250;2023-05-14T05:19:58;13.67;;;12.27;;
2201;SDS011;1107;48.654;9.250;2023-05-14T05:22:26;13.37;;;12.37;;
2201;SDS011;1107;48.654;9.250;2023-05-14T05:24:53;13.00;;;11.90;;
2201;SDS011;1107;48.654;9.250;2023-05-14T05:27:20;11.83;;;10.73;;
2201;SDS011;1107;48.654;9.250;2023-05-14T05:29:47;13.37;;;12.17;;
2201;SDS011;1107;48.654;9.250;2023-05-14T05:32:14;12.07;;;11.07;;
2201;SDS011;1107;48.654;9.250;2023-05-14T05:34:41;12.90;;;11.87;;
2201;SDS011;1107;48.654;9.250;2023-05-14T05:37:08;13.33;;;12.27;;
2201;SDS011;1107;48.654;9.250;2023-05-14T05:39:38;12.77;;;11.67;;
2201;SDS011;1107;48.654;9.250;2023-05-14T05:42:06;12.30;;;11.30;;
2201;SDS011;1107;48.654;9.250;2023-05-14T05:44:33;12.60;;;11.60;;
2201;SDS011;1107;48.654;9.250;2023-05-14T05:47:00;11.83;;;10.73;;
2201;SDS011;1107;48.654;9.250;2023-05-14T05:49:27;11.17;;;10.37;;
2201;SDS011;1107;48.654;9.250;2023-05-14T05:51:54;13.60;;;10.40;;
2201;SDS011;1107;48.654;9.250;2023-05-14T05:54:21;12.30;;;11.20;;
2201;SDS011;1107;48.654;9.250;2023-05-14T05:56:50;11.67;;;10.73;;
2201;SDS011;1107;48.654;9.250;2023-05-14T05:59:17;12.87;;;11.67;;
2201;SDS011;1107;48.654;9.250;2023-05-14T06:01:44;12.90;;;11.67;;
2201;SDS011;1107;48.654;9.250;2023-05-14T06:04:12;13.50;;;12.30;;
2201;SDS011;1107;48.654;9.250;2023-05-14T06:06:39;11.60;;;10.70;;
2201;SDS011;1107;48.654;9.250;2023-05-14T06:09:05;11.60;;;10.70;;
2201;SDS011;1107;48.654;9.250;2023-05-14T06:11:33;16.43;;;11.60;;
2201;SDS011;1107;48.654;9.250;2023-05-14T06:14:01;12.10;;;10.90;;
2201;SDS011;1107;48.654;9.250;2023-05-14T06:16:28;11.60;;;10.50;;
2201;SDS011;1107;48.654;9.250;2023-05-14T06:18:55;12.97;;;11.67;;
2201;SDS011;1107;48.654;9.250;2023-05-14T06:21:22;10.97;;;10.23;;
2201;SDS011;1107;48.654;9.250;2023-05-14T06:23:49;11.57;;;10.67;;
2201;SDS011;1107;48.654;9.250;2023-05-14T06:26:16;11.50;;;10.60;;
2201;SDS011;1107;48.654;9.250;2023-05-14T06:28:43;11.27;;;10.40;;
2201;SDS011;1107;48.654;9.250;2023-05-14T06:31:11;12.27;;;11.30;;
2201;SDS011;1107;48.654;9.250;2023-05-14T06:33:38;10.90;;;10.10;;
2201;SDS011;1107;48.654;9.250;2023-05-14T06:36:06;11.83;;;10.83;;
2201;SDS011;1107;48.654;9.250;2023-05-14T06:38:33;11.30;;;10.53;;
2201;SDS011;1107;48.654;9.250;2023-05-14T06:41:00;10.73;;;9.93;;
2201;SDS011;1107;48.654;9.250;2023-05-14T06:43:27;12.30;;;11.40;;
2201;SDS011;1107;48.654;9.250;2023-05-14T06:45:54;13.40;;;12.20;;
2201;SDS011;1107;48.654;9.250;2023-05-14T06:48:22;15.07;;;12.63;;
2201;SDS011;1107;48.654;9.250;2023-05-14T06:50:51;13.03;;;12.03;;
2201;SDS011;1107;48.654;9.250;2023-05-14T06:53:18;13.60;;;12.30;;
2201;SDS011;1107;48.654;9.250;2023-05-14T06:55:46;13.13;;;11.90;;
2201;SDS011;1107;48.654;9.250;2023-05-14T06:58:13;12.87;;;11.80;;
2201;SDS011;1107;48.654;9.250;2023-05-14T07:00:40;11.13;;;10.23;;
2201;SDS011;1107;48.654;9.250;2023-05-14T07:03:07;12.97;;;11.90;;
2201;SDS011;1107;48.654;9.250;2023-05-14T07:05:35;16.07;;;14.50;;
2201;SDS011;1107;48.654;9.250;2023-05-14T07:08:04;14.60;;;13.13;;
2201;SDS011;1107;48.654;9.250;2023-05-14T07:10:31;13.50;;;12.30;;
2201;SDS011;1107;48.654;9.250;2023-05-14T07:12:58;12.63;;;11.47;;
2201;SDS011;1107;48.654;9.250;2023-05-14T07:15:25;13.13;;;11.20;;
2201;SDS011;1107;48.654;9.250;2023-05-14T07:17:52;14.83;;;10.63;;
2201;SDS011;1107;48.654;9.250;2023-05-14T07:20:19;13.10;;;11.80;;
2201;SDS011;1107;48.654;9.250;2023-05-14T07:22:49;13.20;;;12.13;;
2201;SDS011;1107;48.654;9.250;2023-05-14T07:25:16;12.27;;;11.33;;
2201;SDS011;1107;48.654;9.250;2023-05-14T07:27:43;12.33;;;11.37;;
2201;SDS011;1107;48.654;9.250;2023-05-14T07:30:10;13.13;;;11.90;;
2201;SDS011;1107;48.654;9.250;2023-05-14T07:32:37;12.40;;;11.50;;
2201;SDS011;1107;48.654;9.250;2023-05-14T07:35:05;12.23;;;11.23;;
2201;SDS011;1107;48.654;9.250;2023-05-14T07:37:32;11.27;;;10.40;;
2201;SDS011;1107;48.654;9.250;2023-05-14T07:40:01;11.63;;;10.43;;
2201;SDS011;1107;48.654;9.250;2023-05-14T07:42:28;12.17;;;11.17;;
2201;SDS011;1107;48.654;9.250;2023-05-14T07:44:55;13.77;;;12.47;;
2201;SDS011;1107;48.654;9.250;2023-05-14T07:47:22;12.10;;;11.20;;
2201;SDS011;1107;48.654;9.250;2023-05-14T07:49:52;11.97;;;11.00;;
2201;SDS011;1107;48.654;9.250;2023-05-14T07:52:19;11.87;;;10.97;;
2201;SDS011;1107;48.654;9.250;2023-05-14T07:54:46;18.63;;;12.83;;
2201;SDS011;1107;48.654;9.250;2023-05-14T07:57:15;10.97;;;10.07;;
2201;SDS011;1107;48.654;9.250;2023-05-14T07:59:42;12.07;;;11.17;;
2201;SDS011;1107;48.654;9.250;2023-05-14T08:02:09;12.90;;;11.77;;
2201;SDS011;1107;48.654;9.250;2023-05-14T08:04:36;12.90;;;11.80;;
2201;SDS011;1107;48.654;9.250;2023-05-14T08:07:04;11.60;;;10.70;;
2201;SDS011;1107;48.654;9.250;2023-05-14T08:09:32;13.83;;;11.37;;
2201;SDS011;1107;48.654;9.250;2023-05-14T08:11:59;12.80;;;11.87;;
2201;SDS011;1107;48.654;9.250;2023-05-14T08:14:27;12.80;;;11.70;;
2201;SDS011;1107;48.654;9.250;2023-05-14T08:16:54;12.30;;;11.30;;
2201;SDS011;1107;48.654;9.250;2023-05-14T08:19:21;12.43;;;11.30;;
2201;SDS011;1107;48.654;9.250;2023-05-14T08:21:51;12.13;;;11.33;;
2201;SDS011;1107;48.654;9.250;2023-05-14T08:24:18;12.37;;;11.27;;
2201;SDS011;1107;48.654;9.250;2023-05-14T08:26:45;11.93;;;11.03;;
2201;SDS011;1107;48.654;9.250;2023-05-14T08:29:12;11.13;;;10.53;;
2201;SDS011;1107;48.654;9.250;2023-05-14T08:31:40;12.20;;;11.00;;
2201;SDS011;1107;48.654;9.250;2023-05-14T08:34:07;13.57;;;12.37;;
2201;SDS011;1107;48.654;9.250;2023-05-14T08:36:35;14.47;;;12.73;;
2201;SDS011;1107;48.654;9.250;2023-05-14T08:39:02;14.53;;;11.83;;
2201;SDS011;1107;48.654;9.250;2023-05-14T08:41:28;12.97;;;11.87;;
2201;SDS011;1107;48.654;9.250;2023-05-14T08:43:58;12.67;;;11.77;;
2201;SDS011;1107;48.654;9.250;2023-05-14T08:46:29;15.47;;;12.93;;
2201;SDS011;1107;48.654;9.250;2023-05-14T08:49:16;13.90;;;12.70;;
2201;SDS011;1107;48.654;9.250;2023-05-14T08:51:47;14.17;;;12.80;;
2201;SDS011;1107;48.654;9.250;2023-05-14T08:54:15;13.90;;;12.80;;
2201;SDS011;1107;48.654;9.250;2023-05-14T08:56:42;12.73;;;11.63;;
2201;SDS011;1107;48.654;9.250;2023-05-14T08:59:10;19.00;;;12.80;;
2201;SDS011;1107;48.654;9.250;2023-05-14T09:01:38;12.83;;;11.83;;
2201;SDS011;1107;48.654;9.250;2023-05-14T09:04:09;14.93;;;12.60;;
2201;SDS011;1107;48.654;9.250;2023-05-14T09:06:37;14.17;;;12.90;;
2201;SDS011;1107;48.654;9.250;2023-05-14T09:09:05;12.93;;;11.93;;
2201;SDS011;1107;48.654;9.250;2023-05-14T09:11:32;13.50;;;12.30;;
2201;SDS011;1107;48.654;9.250;2023-05-14T09:13:59;14.47;;;13.07;;
2201;SDS011;1107;48.654;9.250;2023-05-14T09:16:26;13.00;;;11.93;;
2201;SDS011;1107;48.654;9.250;2023-05-14T09:18:53;13.70;;;12.47;;
2201;SDS011;1107;48.654;9.250;2023-05-14T09:21:21;12.40;;;11.63;;
2201;SDS011;1107;48.654;9.250;2023-05-14T09:23:52;12.60;;;11.80;;
2201;SDS011;1107;48.654;9.250;2023-05-14T09:26:22;11.30;;;10.70;;
2201;SDS011;1107;48.654;9.250;2023-05-14T09:28:52;11.23;;;10.43;;
2201;SDS011;1107;48.654;9.250;2023-05-14T09:31:20;13.07;;;12.10;;
2201;SDS011;1107;48.654;9.250;2023-05-14T09:33:48;11.23;;;10.60;;
2201;SDS011;1107;48.654;9.250;2023-05-14T09:36:16;12.57;;;11.63;;
2201;SDS011;1107;48.654;9.250;2023-05-14T09:38:45;10.87;;;10.30;;
2201;SDS011;1107;48.654;9.250;2023-05-14T09:41:12;12.13;;;11.43;;
2201;SDS011;1107;48.654;9.250;2023-05-14T09:43:39;11.03;;;10.33;;
2201;SDS011;1107;48.654;9.250;2023-05-14T09:46:06;12.77;;;11.87;;
2201;SDS011;1107;48.654;9.250;2023-05-14T09:48:33;10.37;;;9.80;;
2201;SDS011;1107;48.654;9.250;2023-05-14T09:51:00;9.77;;;9.17;;
2201;SDS011;1107;48.654;9.250;2023-05-14T09:53:29;10.73;;;10.13;;
2201;SDS011;1107;48.654;9.250;2023-05-14T09:55:59;11.40;;;10.70;;
2201;SDS011;1107;48.654;9.250;2023-05-14T09:58:26;12.93;;;11.83;;
2201;SDS011;1107;48.654;9.250;2023-05-14T10:00:53;11.00;;;10.30;;
2201;SDS011;1107;48.654;9.250;2023-05-14T10:03:23;12.00;;;11.10;;
2201;SDS011;1107;48.654;9.250;2023-05-14T10:05:52;12.73;;;11.73;;
2201;SDS011;1107;48.654;9.250;2023-05-14T10:08:21;11.07;;;10.37;;
2201;SDS011;1107;48.654;9.250;2023-05-14T10:10:52;11.90;;;11.27;;
2201;SDS011;1107;48.654;9.250;2023-05-14T10:13:22;11.47;;;9.90;;
2201;SDS011;1107;48.654;9.250;2023-05-14T10:15:55;11.90;;;11.13;;
2201;SDS011;1107;48.654;9.250;2023-05-14T10:18:26;10.63;;;10.03;;
2201;SDS011;1107;48.654;9.250;2023-05-14T10:20:59;11.93;;;11.20;;
2201;SDS011;1107;48.654;9.250;2023-05-14T10:23:30;11.87;;;11.07;;
2201;SDS011;1107;48.654;9.250;2023-05-14T10:25:57;10.93;;;10.23;;
2201;SDS011;1107;48.654;9.250;2023-05-14T10:28:26;14.23;;;11.97;;
2201;SDS011;1107;48.654;9.250;2023-05-14T10:30:54;13.63;;;10.63;;
2201;SDS011;1107;48.654;9.250;2023-05-14T10:33:20;11.30;;;10.60;;
2201;SDS011;1107;48.654;9.250;2023-05-14T10:35:51;12.97;;;12.10;;
2201;SDS011;1107;48.654;9.250;2023-05-14T10:38:21;10.97;;;10.37;;
2201;SDS011;1107;48.654;9.250;2023-05-14T10:40:53;11.23;;;10.60;;
2201;SDS011;1107;48.654;9.250;2023-05-14T10:43:22;10.87;;;10.10;;
2201;SDS011;1107;48.654;9.250;2023-05-14T10:45:53;9.97;;;9.47;;
2201;SDS011;1107;48.654;9.250;2023-05-14T10:48:20;10.20;;;9.70;;
2201;SDS011;1107;48.654;9.250;2023-05-14T10:50:47;9.13;;;8.63;;
2201;SDS011;1107;48.654;9.250;2023-05-14T10:53:16;9.50;;;8.80;;
2201;SDS011;1107;48.654;9.250;2023-05-14T10:55:43;10.43;;;9.83;;
2201;SDS011;1107;48.654;9.250;2023-05-14T10:58:11;10.60;;;9.03;;
2201;SDS011;1107;48.654;9.250;2023-05-14T11:00:39;9.87;;;9.27;;
2201;SDS011;1107;48.654;9.250;2023-05-14T11:03:08;9.80;;;9.30;;
2201;SDS011;1107;48.654;9.250;2023-05-14T11:05:37;10.17;;;9.07;;
2201;SDS011;1107;48.654;9.250;2023-05-14T11:08:06;10.00;;;9.30;;
2201;SDS011;1107;48.654;9.250;2023-05-14T11:10:34;10.43;;;9.43;;
2201;SDS011;1107;48.654;9.250;2023-05-14T11:13:00;9.60;;;9.00;;
2201;SDS011;1107;48.654;9.250;2023-05-14T11:15:27;9.90;;;9.30;;
2201;SDS011;1107;48.654;9.250;2023-05-14T11:17:54;10.20;;;9.80;;
2201;SDS011;1107;48.654;9.250;2023-05-14T11:20:23;9.23;;;8.83;;
2201;SDS011;1107;48.654;9.250;2023-05-14T11:22:50;10.00;;;9.30;;
2201;SDS011;1107;48.654;9.250;2023-05-14T11:25:17;11.67;;;10.97;;
2201;SDS011;1107;48.654;9.250;2023-05-14T11:27:45;9.87;;;9.37;;
2201;SDS011;1107;48.654;9.250;2023-05-14T11:30:13;9.60;;;9.20;;
2201;SDS011;1107;48.654;9.250;2023-05-14T11:32:42;10.30;;;9.80;;
2201;SDS011;1107;48.654;9.250;2023-05-14T11:35:10;9.03;;;8.20;;
2201;SDS011;1107;48.654;9.250;2023-05-14T11:37:38;9.37;;;8.87;;
2201;SDS011;1107;48.654;9.250;2023-05-14T11:40:06;9.40;;;8.70;;
2201;SDS011;1107;48.654;9.250;2023-05-14T11:42:35;8.53;;;8.13;;
2201;SDS011;1107;48.654;9.250;2023-05-14T11:45:02;9.07;;;8.67;;
2201;SDS011;1107;48.654;9.250;2023-05-14T11:47:29;8.00;;;7.70;;
2201;SDS011;1107;48.654;9.250;2023-05-14T11:49:56;8.47;;;8.07;;
2201;SDS011;1107;48.654;9.250;2023-05-14T11:52:24;8.00;;;7.60;;
2201;SDS011;1107;48.654;9.250;2023-05-14T11:54:53;8.97;;;8.53;;
2201;SDS011;1107;48.654;9.250;2023-05-14T11:57:20;7.30;;;7.00;;
2201;SDS011;1107;48.654;9.250;2023-05-14T11:59:48;6.50;;;6.20;;
2201;SDS011;1107;48.654;9.250;2023-05-14T12:02:21;7.20;;;6.90;;
2201;SDS011;1107;48.654;9.250;2023-05-14T12:04:48;8.00;;;7.40;;
2201;SDS011;1107;48.654;9.250;2023-05-14T12:07:17;7.90;;;7.40;;
2201;SDS011;1107;48.654;9.250;2023-05-14T12:09:44;7.07;;;6.77;;
2201;SDS011;1107;48.654;9.250;2023-05-14T12:12:16;7.13;;;6.83;;
2201;SDS011;1107;48.654;9.250;2023-05-14T12:14:44;7.70;;;7.20;;
2201;SDS011;1107;48.654;9.250;2023-05-14T12:17:12;6.30;;;6.00;;
2201;SDS011;1107;48.654;9.250;2023-05-14T12:19:41;6.50;;;6.20;;
2201;SDS011;1107;48.654;9.250;2023-05-14T12:22:09;7.17;;;6.77;;
2201;SDS011;1107;48.654;9.250;2023-05-14T12:24:37;6.30;;;5.80;;
2201;SDS011;1107;48.654;9.250;2023-05-14T12:27:05;5.40;;;5.10;;
2201;SDS011;1107;48.654;9.250;2023-05-14T12:29:35;5.73;;;5.33;;
2201;SDS011;1107;48.654;9.250;2023-05-14T12:32:06;5.80;;;5.60;;
2201;SDS011;1107;48.654;9.250;2023-05-14T12:34:35;7.47;;;7.17;;
2201;SDS011;1107;48.654;9.250;2023-05-14T12:37:02;7.00;;;6.70;;
2201;SDS011;1107;48.654;9.250;2023-05-14T12:39:31;7.63;;;6.90;;
2201;SDS011;1107;48.654;9.250;2023-05-14T12:41:59;7.37;;;6.33;;
2201;SDS011;1107;48.654;9.250;2023-05-14T12:44:26;6.77;;;6.47;;
2201;SDS011;1107;48.654;9.250;2023-05-14T12:46:54;6.33;;;6.03;;
2201;SDS011;1107;48.654;9.250;2023-05-14T12:49:21;8.00;;;7.60;;
2201;SDS011;1107;48.654;9.250;2023-05-14T12:51:48;8.60;;;8.17;;
2201;SDS011;1107;48.654;9.250;2023-05-14T12:54:15;8.27;;;7.77;;
2201;SDS011;1107;48.654;9.250;2023-05-14T12:56:42;7.63;;;7.23;;
2201;SDS011;1107;48.654;9.250;2023-05-14T12:59:09;26.57;;;7.30;;
2201;SDS011;1107;48.654;9.250;2023-05-14T13:01:36;7.70;;;7.40;;
2201;SDS011;1107;48.654;9.250;2023-05-14T13:04:04;7.60;;;7.20;;
2201;SDS011;1107;48.654;9.250;2023-05-14T13:06:33;6.70;;;6.37;;
2201;SDS011;1107;48.654;9.250;2023-05-14T13:08:59;6.90;;;6.47;;
2201;SDS011;1107;48.654;9.250;2023-05-14T13:11:28;6.63;;;6.33;;
2201;SDS011;1107;48.654;9.250;2023-05-14T13:13:56;7.20;;;6.80;;
2201;SDS011;1107;48.654;9.250;2023-05-14T13:16:23;6.87;;;6.30;;
2201;SDS011;1107;48.654;9.250;2023-05-14T13:18:50;16.93;;;6.90;;
2201;SDS011;1107;48.654;9.250;2023-05-14T13:21:19;7.70;;;7.13;;
2201;SDS011;1107;48.654;9.250;2023-05-14T13:23:46;7.60;;;7.20;;
2201;SDS011;1107;48.654;9.250;2023-05-14T13:26:13;7.07;;;6.57;;
2201;SDS011;1107;48.654;9.250;2023-05-14T13:28:40;7.43;;;7.13;;
2201;SDS011;1107;48.654;9.250;2023-05-14T13:31:07;6.63;;;6.33;;
2201;SDS011;1107;48.654;9.250;2023-05-14T13:33:36;7.80;;;7.03;;
2201;SDS011;1107;48.654;9.250;2023-05-14T13:36:05;6.93;;;6.63;;
2201;SDS011;1107;48.654;9.250;2023-05-14T13:38:34;10.33;;;6.53;;
2201;SDS011;1107;48.654;9.250;2023-05-14T13:41:01;6.27;;;5.97;;
2201;SDS011;1107;48.654;9.250;2023-05-14T13:43:28;6.73;;;6.43;;
2201;SDS011;1107;48.654;9.250;2023-05-14T13:45:55;7.20;;;6.90;;
2201;SDS011;1107;48.654;9.250;2023-05-14T13:48:23;6.20;;;5.90;;
2201;SDS011;1107;48.654;9.250;2023-05-14T13:50:50;5.53;;;5.33;;
2201;SDS011;1107;48.654;9.250;2023-05-14T13:53:17;5.43;;;5.20;;
2201;SDS011;1107;48.654;9.250;2023-05-14T13:55:45;6.10;;;5.80;;
2201;SDS011;1107;48.654;9.250;2023-05-14T13:58:13;6.03;;;5.73;;
2201;SDS011;1107;48.654;9.250;2023-05-14T14:00:40;6.37;;;6.07;;
2201;SDS011;1107;48.654;9.250;2023-05-14T14:03:07;6.10;;;5.80;;
2201;SDS011;1107;48.654;9.250;2023-05-14T14:05:34;5.17;;;4.87;;
2201;SDS011;1107;48.654;9.250;2023-05-14T14:08:01;5.67;;;5.27;;
2201;SDS011;1107;48.654;9.250;2023-05-14T14:10:28;5.77;;;5.57;;
2201;SDS011;1107;48.654;9.250;2023-05-14T14:12:57;5.07;;;4.87;;
2201;SDS011;1107;48.654;9.250;2023-05-14T14:15:24;6.10;;;5.80;;
2201;SDS011;1107;48.654;9.250;2023-05-14T14:17:51;5.63;;;5.10;;
2201;SDS011;1107;48.654;9.250;2023-05-14T14:20:18;6.20;;;5.80;;
2201;SDS011;1107;48.654;9.250;2023-05-14T14:22:45;5.80;;;5.50;;
2201;SDS011;1107;48.654;9.250;2023-05-14T14:25:12;6.63;;;6.10;;
2201;SDS011;1107;48.654;9.250;2023-05-14T14:27:39;6.50;;;6.20;;
2201;SDS011;1107;48.654;9.250;2023-05-14T14:30:08;5.63;;;5.43;;
2201;SDS011;1107;48.654;9.250;2023-05-14T14:32:39;5.80;;;5.40;;
2201;SDS011;1107;48.654;9.250;2023-05-14T14:35:08;5.50;;;5.30;;
2201;SDS011;1107;48.654;9.250;2023-05-14T14:37:36;5.40;;;5.10;;
2201;SDS011;1107;48.654;9.250;2023-05-14T14:40:03;5.40;;;5.10;;
2201;SDS011;1107;48.654;9.250;2023-05-14T14:42:32;5.77;;;5.57;;
2201;SDS011;1107;48.654;9.250;2023-05-14T14:44:59;5.60;;;5.30;;
2201;SDS011;1107;48.654;9.250;2023-05-14T14:47:27;5.70;;;5.40;;
2201;SDS011;1107;48.654;9.250;2023-05-14T14:49:54;7.20;;;6.70;;
2201;SDS011;1107;48.654;9.250;2023-05-14T14:52:21;6.33;;;6.03;;
2201;SDS011;1107;48.654;9.250;2023-05-14T14:54:49;6.10;;;5.80;;
2201;SDS011;1107;48.654;9.250;2023-05-14T14:57:16;6.20;;;6.00;;
2201;SDS011;1107;48.654;9.250;2023-05-14T14:59:43;7.13;;;6.53;;